createdAt,value
2023-02-05T00:00:20.248Z,6.92
2023-02-05T00:02:47.963Z,6.76
2023-02-05T00:05:15.493Z,6.75
2023-02-05T00:07:43.190Z,6.72
2023-02-05T00:10:10.754Z,6.84
2023-02-05T00:12:38.910Z,6.79
2023-02-05T00:15:07.147Z,6.64
2023-02-05T00:17:36.289Z,6.76
2023-02-05T00:20:05.999Z,6.82
2023-02-05T00:22:33.690Z,6.78
2023-02-05T00:25:01.824Z,6.64
2023-02-05T00:27:29.368Z,6.67
2023-02-05T00:29:57.064Z,6.72
2023-02-05T00:32:24.782Z,6.65
2023-02-05T00:34:52.627Z,6.63
2023-02-05T00:37:20.269Z,6.58
2023-02-05T00:39:47.784Z,6.59
2023-02-05T00:42:15.503Z,6.55
2023-02-05T00:44:43.294Z,6.56
2023-02-05T00:47:11.444Z,6.61
2023-02-05T00:49:39.578Z,6.53
2023-02-05T00:52:07.560Z,6.59
2023-02-05T00:54:35.282Z,6.45
2023-02-05T00:57:03.766Z,6.44
2023-02-05T00:59:31.457Z,6.44
2023-02-05T01:01:59.753Z,6.47
2023-02-05T01:04:27.925Z,6.47
2023-02-05T01:06:55.529Z,6.37
2023-02-05T01:09:23.276Z,6.53
2023-02-05T01:11:50.970Z,6.39
2023-02-05T01:14:19.073Z,6.51
2023-02-05T01:16:47.218Z,6.34
2023-02-05T01:19:14.960Z,6.33
2023-02-05T01:21:42.967Z,6.30
2023-02-05T01:24:10.602Z,6.31
2023-02-05T01:26:39.510Z,6.38
2023-02-05T01:29:08.882Z,6.35
2023-02-05T01:31:36.693Z,6.24
2023-02-05T01:34:04.426Z,6.07
2023-02-05T01:36:32.065Z,6.16
2023-02-05T01:38:59.692Z,6.19
2023-02-05T01:41:27.364Z,6.26
2023-02-05T01:44:18.526Z,6.08
2023-02-05T01:46:48.087Z,6.16
2023-02-05T01:49:30.603Z,6.08
2023-02-05T01:52:01.884Z,6.05
2023-02-05T01:54:31.511Z,6.06
2023-02-05T01:57:06.628Z,6.02
2023-02-05T01:59:39.104Z,5.93
2023-02-05T02:02:07.765Z,5.99
2023-02-05T02:04:40.103Z,5.96
2023-02-05T02:07:11.118Z,6.01
2023-02-05T02:09:42.267Z,5.98
2023-02-05T02:12:14.020Z,5.88
2023-02-05T02:14:46.904Z,5.84
2023-02-05T02:17:16.670Z,5.89
2023-02-05T02:19:53.939Z,5.98
2023-02-05T02:22:24.580Z,5.96
2023-02-05T02:24:55.263Z,6.03
2023-02-05T02:27:40.035Z,5.96
2023-02-05T02:30:43.024Z,5.95
2023-02-05T02:33:34.555Z,5.85
2023-02-05T02:36:17.901Z,5.76
2023-02-05T02:39:16.891Z,5.77
2023-02-05T02:42:09.540Z,5.69
2023-02-05T02:44:48.918Z,5.65
2023-02-05T02:47:21.427Z,5.72
2023-02-05T02:50:04.056Z,5.60
2023-02-05T02:52:38.519Z,5.72
2023-02-05T02:55:10.084Z,5.69
2023-02-05T02:57:43.579Z,5.72
2023-02-05T03:00:25.512Z,5.65
2023-02-05T03:02:58.531Z,5.56
2023-02-05T03:05:29.287Z,5.59
2023-02-05T03:08:06.716Z,5.55
2023-02-05T03:10:42.833Z,5.57
2023-02-05T03:13:11.685Z,5.67
2023-02-05T03:15:45.495Z,5.72
2023-02-05T03:18:16.274Z,5.65
2023-02-05T03:21:03.764Z,5.56
2023-02-05T03:23:32.239Z,5.46
2023-02-05T03:26:00.519Z,5.46
2023-02-05T03:28:38.546Z,5.42
2023-02-05T03:31:18.925Z,5.45
2023-02-05T03:33:55.655Z,5.26
2023-02-05T03:36:48.611Z,5.29
2023-02-05T03:39:46.303Z,5.29
2023-02-05T03:42:48.603Z,5.32
2023-02-05T03:45:42.943Z,5.28
2023-02-05T03:48:26.616Z,5.17
2023-02-05T03:51:27.344Z,5.13
2023-02-05T03:54:06.916Z,5.15
2023-02-05T03:56:43.122Z,5.08
2023-02-05T03:59:14.370Z,5.12
2023-02-05T04:01:44.889Z,5.13
2023-02-05T04:04:14.965Z,5.11
2023-02-05T04:06:43.117Z,5.07
2023-02-05T04:09:11.273Z,5.08
2023-02-05T04:11:39.846Z,5.13
2023-02-05T04:14:08.072Z,5.15
2023-02-05T04:16:37.632Z,5.02
2023-02-05T04:19:05.343Z,5.02
2023-02-05T04:21:33.457Z,5.05
2023-02-05T04:24:01.520Z,5.14
2023-02-05T04:26:29.624Z,5.09
2023-02-05T04:29:05.065Z,4.95
2023-02-05T04:31:38.056Z,5.02
2023-02-05T04:34:06.210Z,5.05
2023-02-05T04:36:34.856Z,5.00
2023-02-05T04:39:03.410Z,5.03
2023-02-05T04:41:31.223Z,5.01
2023-02-05T04:43:59.136Z,4.96
2023-02-05T04:46:27.398Z,4.96
2023-02-05T04:48:55.636Z,4.96
2023-02-05T04:51:23.378Z,4.94
2023-02-05T04:53:51.150Z,4.87
2023-02-05T04:56:18.796Z,4.86
2023-02-05T04:58:47.159Z,4.87
2023-02-05T05:01:21.299Z,4.96
2023-02-05T05:03:50.664Z,5.00
2023-02-05T05:06:19.442Z,4.92
2023-02-05T05:08:47.139Z,4.98
2023-02-05T05:11:17.579Z,4.98
2023-02-05T05:13:47.258Z,4.92
2023-02-05T05:16:15.773Z,4.88
2023-02-05T05:18:43.846Z,4.98
2023-02-05T05:21:12.007Z,4.91
2023-02-05T05:23:39.729Z,4.90
2023-02-05T05:26:11.022Z,4.97
2023-02-05T05:28:39.812Z,5.00
2023-02-05T05:31:19.959Z,4.95
2023-02-05T05:33:48.189Z,5.04
2023-02-05T05:36:16.667Z,4.97
2023-02-05T05:38:44.570Z,4.93
2023-02-05T05:41:39.754Z,4.92
2023-02-05T05:44:08.103Z,4.91
2023-02-05T05:46:36.656Z,4.78
2023-02-05T05:49:04.298Z,4.80
2023-02-05T05:51:32.811Z,4.80
2023-02-05T05:54:00.823Z,4.84
2023-02-05T05:56:28.638Z,4.78
2023-02-05T05:58:56.464Z,4.73
2023-02-05T06:01:24.087Z,4.76
2023-02-05T06:03:51.723Z,4.79
2023-02-05T06:06:19.471Z,4.67
2023-02-05T06:08:47.614Z,4.60
2023-02-05T06:11:15.208Z,4.54
2023-02-05T06:13:42.775Z,4.45
2023-02-05T06:16:10.995Z,4.50
2023-02-05T06:18:38.661Z,4.52
2023-02-05T06:21:06.323Z,4.59
2023-02-05T06:23:34.365Z,4.54
2023-02-05T06:26:02.016Z,4.58
2023-02-05T06:28:30.004Z,4.63
2023-02-05T06:30:57.868Z,4.71
2023-02-05T06:33:26.141Z,4.63
2023-02-05T06:35:54.721Z,4.65
2023-02-05T06:38:22.707Z,4.61
2023-02-05T06:40:50.893Z,4.63
2023-02-05T06:43:18.651Z,4.71
2023-02-05T06:45:46.370Z,4.71
2023-02-05T06:48:14.782Z,4.82
2023-02-05T06:50:42.759Z,4.83
2023-02-05T06:53:11.916Z,4.88
2023-02-05T06:55:40.284Z,4.94
2023-02-05T06:58:08.471Z,5.02
2023-02-05T07:00:36.909Z,5.13
2023-02-05T07:03:04.640Z,5.17
2023-02-05T07:05:34.844Z,5.33
2023-02-05T07:08:04.189Z,5.37
2023-02-05T07:10:32.129Z,5.51
2023-02-05T07:12:59.663Z,5.43
2023-02-05T07:15:27.553Z,5.53
2023-02-05T07:17:55.184Z,5.38
2023-02-05T07:20:23.325Z,5.49
2023-02-05T07:22:50.903Z,5.66
2023-02-05T07:25:19.432Z,5.73
2023-02-05T07:27:47.164Z,5.95
2023-02-05T07:30:15.315Z,6.10
2023-02-05T07:32:42.940Z,6.31
2023-02-05T07:35:11.095Z,6.58
2023-02-05T07:37:39.534Z,6.73
2023-02-05T07:40:07.973Z,6.63
2023-02-05T07:42:36.070Z,6.82
2023-02-05T07:45:05.280Z,6.85
2023-02-05T07:47:33.309Z,7.13
2023-02-05T07:50:01.086Z,7.29
2023-02-05T07:52:29.305Z,6.91
2023-02-05T07:54:57.045Z,6.99
2023-02-05T07:57:26.721Z,7.24
2023-02-05T07:59:55.061Z,7.01
2023-02-05T08:02:22.742Z,6.93
2023-02-05T08:04:50.850Z,7.00
2023-02-05T08:07:18.570Z,6.99
2023-02-05T08:09:46.783Z,6.82
2023-02-05T08:12:14.411Z,6.82
2023-02-05T08:14:44.448Z,6.92
2023-02-05T08:17:12.316Z,7.08
2023-02-05T08:19:40.297Z,7.30
2023-02-05T08:22:08.302Z,7.68
2023-02-05T08:24:35.943Z,7.62
2023-02-05T08:27:03.730Z,7.57
2023-02-05T08:29:31.427Z,7.64
2023-02-05T08:31:59.155Z,7.55
2023-02-05T08:34:27.201Z,7.14
2023-02-05T08:36:54.896Z,7.49
2023-02-05T08:39:22.429Z,7.73
2023-02-05T08:41:50.021Z,7.74
2023-02-05T08:44:18.060Z,8.09
2023-02-05T08:46:50.106Z,8.29
2023-02-05T08:49:18.359Z,8.20
2023-02-05T08:51:47.019Z,8.42
2023-02-05T08:54:15.744Z,8.59
2023-02-05T08:56:45.391Z,8.55
2023-02-05T08:59:13.057Z,9.04
2023-02-05T09:01:43.125Z,9.07
2023-02-05T09:04:15.854Z,9.38
2023-02-05T09:06:44.229Z,9.60
2023-02-05T09:09:13.793Z,10.04
2023-02-05T09:11:42.432Z,9.70
2023-02-05T09:14:10.541Z,9.30
2023-02-05T09:16:38.817Z,9.01
2023-02-05T09:19:06.443Z,9.31
2023-02-05T09:21:34.968Z,9.54
2023-02-05T09:24:02.703Z,9.54
2023-02-05T09:26:31.073Z,9.79
2023-02-05T09:28:58.850Z,9.89
2023-02-05T09:31:27.109Z,9.77
2023-02-05T09:33:55.896Z,9.74
2023-02-05T09:36:24.375Z,10.03
2023-02-05T09:39:04.980Z,10.20
2023-02-05T09:42:00.994Z,10.58
2023-02-05T09:44:54.472Z,10.90
2023-02-05T09:47:35.643Z,10.22
2023-02-05T09:50:25.698Z,10.22
2023-02-05T09:52:59.749Z,10.18
2023-02-05T09:55:34.493Z,10.67
2023-02-05T09:58:08.193Z,10.61
2023-02-05T10:01:07.240Z,10.68
2023-02-05T10:03:40.748Z,10.30
2023-02-05T10:06:22.114Z,10.29
2023-02-05T10:09:11.602Z,9.79
2023-02-05T10:11:45.086Z,10.13
2023-02-05T10:14:30.410Z,10.22
2023-02-05T10:17:16.275Z,10.54
2023-02-05T10:20:07.260Z,10.73
2023-02-05T10:22:40.739Z,10.52
2023-02-05T10:25:26.355Z,10.24
2023-02-05T10:28:18.261Z,10.24
2023-02-05T10:30:51.556Z,10.51
2023-02-05T10:33:36.015Z,10.44
2023-02-05T10:36:06.947Z,11.10
2023-02-05T10:38:42.044Z,11.22
2023-02-05T10:41:43.348Z,10.78
2023-02-05T10:44:30.765Z,10.59
2023-02-05T10:47:07.250Z,10.81
2023-02-05T10:49:56.190Z,11.45
2023-02-05T10:52:24.319Z,10.62
2023-02-05T10:54:51.986Z,10.06
2023-02-05T10:57:22.143Z,10.99
2023-02-05T10:59:56.526Z,11.25
2023-02-05T11:02:38.088Z,11.48
2023-02-05T11:05:21.382Z,11.12
2023-02-05T11:07:51.795Z,11.58
2023-02-05T11:10:26.300Z,12.19
2023-02-05T11:13:16.907Z,11.54
2023-02-05T11:16:01.073Z,11.08
2023-02-05T11:18:49.593Z,11.32
2023-02-05T11:21:17.382Z,11.55
2023-02-05T11:23:56.905Z,11.72
2023-02-05T11:26:28.608Z,11.43
2023-02-05T11:28:56.225Z,11.07
2023-02-05T11:31:27.570Z,11.01
2023-02-05T11:34:08.142Z,10.57
2023-02-05T11:36:54.103Z,11.25
2023-02-05T11:39:36.615Z,11.71
2023-02-05T11:42:09.812Z,11.65
2023-02-05T11:44:48.392Z,11.76
2023-02-05T11:47:27.967Z,12.16
2023-02-05T11:49:57.028Z,12.66
2023-02-05T11:52:30.417Z,12.72
2023-02-05T11:54:58.220Z,12.83
2023-02-05T11:57:35.569Z,12.60
2023-02-05T12:00:09.772Z,12.38
2023-02-05T12:02:39.094Z,12.41
2023-02-05T12:05:12.343Z,13.07
2023-02-05T12:07:50.581Z,13.24
2023-02-05T12:10:33.890Z,12.48
2023-02-05T12:13:08.320Z,12.88
2023-02-05T12:16:12.825Z,12.36
2023-02-05T12:18:54.749Z,11.98
2023-02-05T12:21:37.360Z,11.82
2023-02-05T12:24:07.736Z,11.80
2023-02-05T12:26:44.599Z,11.76
2023-02-05T12:29:49.457Z,11.70
2023-02-05T12:32:37.080Z,11.44
2023-02-05T12:35:21.952Z,11.62
2023-02-05T12:38:31.552Z,11.02
2023-02-05T12:41:29.137Z,10.77
2023-02-05T12:44:33.526Z,10.75
2023-02-05T12:47:41.804Z,10.37
2023-02-05T12:50:32.228Z,10.48
2023-02-05T12:53:15.531Z,10.19
2023-02-05T12:56:04.989Z,10.18
2023-02-05T12:58:38.602Z,10.27
2023-02-05T13:01:15.025Z,10.27
2023-02-05T13:03:49.086Z,10.28
2023-02-05T13:06:49.079Z,10.46
2023-02-05T13:09:22.999Z,10.70
2023-02-05T13:11:53.455Z,10.97
2023-02-05T13:14:26.216Z,10.66
2023-02-05T13:17:15.711Z,10.49
2023-02-05T13:19:51.850Z,10.02
2023-02-05T13:22:46.845Z,9.78
2023-02-05T13:25:44.818Z,9.72
2023-02-05T13:28:42.425Z,9.88
2023-02-05T13:31:28.168Z,10.17
2023-02-05T13:34:01.544Z,10.31
2023-02-05T13:36:51.221Z,10.57
2023-02-05T13:39:54.469Z,10.04
2023-02-05T13:42:28.815Z,10.18
2023-02-05T13:45:31.183Z,10.06
2023-02-05T13:48:33.968Z,10.18
2023-02-05T13:51:13.420Z,10.20
2023-02-05T13:54:17.260Z,9.90
2023-02-05T13:57:12.058Z,9.92
2023-02-05T13:59:43.542Z,9.97
2023-02-05T14:02:33.468Z,9.63
2023-02-05T14:05:03.258Z,9.57
2023-02-05T14:07:47.244Z,9.69
2023-02-05T14:10:39.411Z,9.66
2023-02-05T14:13:31.208Z,9.67
2023-02-05T14:16:25.510Z,9.52
2023-02-05T14:19:01.848Z,9.51
2023-02-05T14:21:32.511Z,9.02
2023-02-05T14:24:15.667Z,9.03
2023-02-05T14:26:52.015Z,9.07
2023-02-05T14:29:48.196Z,8.97
2023-02-05T14:32:29.024Z,9.10
2023-02-05T14:35:00.062Z,8.75
2023-02-05T14:37:37.601Z,8.46
2023-02-05T14:40:35.913Z,8.54
2023-02-05T14:43:24.578Z,8.66
2023-02-05T14:45:53.308Z,8.84
2023-02-05T14:48:27.504Z,8.79
2023-02-05T14:51:06.491Z,8.70
2023-02-05T14:53:37.433Z,8.46
2023-02-05T14:56:06.003Z,8.51
2023-02-05T14:58:40.931Z,8.74
2023-02-05T15:01:34.075Z,8.65
2023-02-05T15:04:04.112Z,8.36
2023-02-05T15:06:41.038Z,8.62
2023-02-05T15:09:24.441Z,8.26
2023-02-05T15:12:22.454Z,8.24
2023-02-05T15:14:56.612Z,7.91
2023-02-05T15:17:30.739Z,8.03
2023-02-05T15:20:05.369Z,8.06
2023-02-05T15:22:51.516Z,8.07
2023-02-05T15:25:27.857Z,7.83
2023-02-05T15:28:07.484Z,7.67
2023-02-05T15:31:26.298Z,7.57
2023-02-05T15:34:16.889Z,7.50
2023-02-05T15:36:51.117Z,7.79
2023-02-05T15:39:30.860Z,7.71
2023-02-05T15:42:02.154Z,7.64
2023-02-05T15:44:32.913Z,7.33
2023-02-05T15:47:22.511Z,7.51
2023-02-05T15:49:54.842Z,7.31
2023-02-05T15:52:27.970Z,7.23
2023-02-05T15:55:08.516Z,7.36
2023-02-05T15:57:36.380Z,7.47
2023-02-05T16:00:07.778Z,7.33
2023-02-05T16:02:39.991Z,7.23
2023-02-05T16:05:19.548Z,7.33
2023-02-05T16:07:51.937Z,7.37
2023-02-05T16:10:23.326Z,7.37
2023-02-05T16:13:18.434Z,7.40
2023-02-05T16:15:55.850Z,7.34
2023-02-05T16:18:32.741Z,7.53
2023-02-05T16:21:13.578Z,7.42
2023-02-05T16:23:55.050Z,7.29
2023-02-05T16:26:28.936Z,7.28
2023-02-05T16:28:58.539Z,7.09
2023-02-05T16:31:28.982Z,6.97
2023-02-05T16:34:04.238Z,7.06
2023-02-05T16:36:37.163Z,6.94
2023-02-05T16:39:17.230Z,6.88
2023-02-05T16:41:45.997Z,7.04
2023-02-05T16:44:31.926Z,7.01
2023-02-05T16:47:06.159Z,6.96
2023-02-05T16:49:33.934Z,6.98
2023-02-05T16:52:01.732Z,7.12
2023-02-05T16:54:38.850Z,7.03
2023-02-05T16:57:17.049Z,6.88
2023-02-05T16:59:50.717Z,6.85
2023-02-05T17:02:23.400Z,6.81
2023-02-05T17:04:53.901Z,6.85
2023-02-05T17:07:22.975Z,6.91
2023-02-05T17:09:51.347Z,6.85
2023-02-05T17:12:20.532Z,6.85
2023-02-05T17:14:57.298Z,6.91
2023-02-05T17:17:26.945Z,6.88
2023-02-05T17:20:09.847Z,6.78
2023-02-05T17:22:38.002Z,6.88
2023-02-05T17:25:06.221Z,6.75
2023-02-05T17:27:38.305Z,6.62
2023-02-05T17:30:15.720Z,6.90
2023-02-05T17:32:46.849Z,6.73
2023-02-05T17:35:16.084Z,6.90
2023-02-05T17:37:43.723Z,7.07
2023-02-05T17:40:15.479Z,7.02
2023-02-05T17:42:45.341Z,7.14
2023-02-05T17:45:19.664Z,7.01
2023-02-05T17:47:48.128Z,7.03
2023-02-05T17:50:16.942Z,6.81
2023-02-05T17:52:45.308Z,6.77
2023-02-05T17:55:18.214Z,6.88
2023-02-05T17:57:46.529Z,6.89
2023-02-05T18:00:18.295Z,6.87
2023-02-05T18:02:46.239Z,6.73
2023-02-05T18:05:14.525Z,6.71
2023-02-05T18:07:51.444Z,6.93
2023-02-05T18:10:25.100Z,6.89
2023-02-05T18:12:53.937Z,6.86
2023-02-05T18:15:22.988Z,6.79
2023-02-05T18:17:50.571Z,6.87
2023-02-05T18:20:20.956Z,6.75
2023-02-05T18:22:49.386Z,6.86
2023-02-05T18:25:17.893Z,6.91
2023-02-05T18:27:46.842Z,6.77
2023-02-05T18:30:15.221Z,6.66
2023-02-05T18:32:42.692Z,6.68
2023-02-05T18:35:14.568Z,6.81
2023-02-05T18:37:43.225Z,6.74
2023-02-05T18:40:13.823Z,6.81
2023-02-05T18:42:42.221Z,6.73
2023-02-05T18:45:10.418Z,6.77
2023-02-05T18:47:37.955Z,6.83
2023-02-05T18:50:08.768Z,6.74
2023-02-05T18:52:37.641Z,6.78
2023-02-05T18:55:05.769Z,6.56
2023-02-05T18:57:33.927Z,6.64
2023-02-05T19:00:01.562Z,6.66
2023-02-05T19:02:29.181Z,6.74
2023-02-05T19:04:56.869Z,6.74
2023-02-05T19:07:25.007Z,6.67
2023-02-05T19:09:53.571Z,6.77
2023-02-05T19:12:21.649Z,6.76
2023-02-05T19:14:50.046Z,6.77
2023-02-05T19:17:20.107Z,6.67
2023-02-05T19:19:49.882Z,6.62
2023-02-05T19:22:17.689Z,6.54
2023-02-05T19:24:45.795Z,6.44
2023-02-05T19:27:14.485Z,6.59
2023-02-05T19:29:42.005Z,6.58
2023-02-05T19:32:09.965Z,6.63
2023-02-05T19:34:40.561Z,6.56
2023-02-05T19:37:09.579Z,6.62
2023-02-05T19:39:38.954Z,6.59
2023-02-05T19:42:07.221Z,6.62
2023-02-05T19:44:34.950Z,6.50
2023-02-05T19:47:03.015Z,6.58
2023-02-05T19:49:30.524Z,6.53
2023-02-05T19:51:59.641Z,6.68
2023-02-05T19:54:29.691Z,6.76
2023-02-05T19:56:57.681Z,6.70
2023-02-05T19:59:25.809Z,6.64
2023-02-05T20:01:54.042Z,6.58
2023-02-05T20:04:24.992Z,6.66
2023-02-05T20:06:58.719Z,6.79
2023-02-05T20:09:28.044Z,6.84
2023-02-05T20:11:57.580Z,6.88
2023-02-05T20:14:28.542Z,6.85
2023-02-05T20:16:56.472Z,6.73
2023-02-05T20:19:25.024Z,6.63
2023-02-05T20:21:53.589Z,6.56
2023-02-05T20:24:23.159Z,6.48
2023-02-05T20:26:53.122Z,6.62
2023-02-05T20:29:40.515Z,6.62
2023-02-05T20:32:09.941Z,6.63
2023-02-05T20:34:40.740Z,6.72
2023-02-05T20:37:09.622Z,6.56
2023-02-05T20:39:41.946Z,6.70
2023-02-05T20:42:14.127Z,6.59
2023-02-05T20:44:43.135Z,6.51
2023-02-05T20:47:14.658Z,6.53
2023-02-05T20:49:45.828Z,6.42
2023-02-05T20:52:14.176Z,6.48
2023-02-05T20:54:42.490Z,6.54
2023-02-05T20:57:10.725Z,6.69
2023-02-05T20:59:40.809Z,6.83
2023-02-05T21:02:13.739Z,6.66
2023-02-05T21:04:42.882Z,6.57
2023-02-05T21:07:10.783Z,6.57
2023-02-05T21:09:39.790Z,6.65
2023-02-05T21:12:09.516Z,6.70
2023-02-05T21:14:37.060Z,6.70
2023-02-05T21:17:09.257Z,6.60
2023-02-05T21:19:38.955Z,6.55
2023-02-05T21:22:06.924Z,6.64
2023-02-05T21:24:35.121Z,6.57
2023-02-05T21:27:02.855Z,6.49
2023-02-05T21:29:30.881Z,6.61
2023-02-05T21:31:58.664Z,6.69
2023-02-05T21:34:28.138Z,6.81
2023-02-05T21:36:56.729Z,6.78
2023-02-05T21:39:25.715Z,6.65
2023-02-05T21:41:54.544Z,6.51
2023-02-05T21:44:22.651Z,6.59
2023-02-05T21:46:50.211Z,6.74
2023-02-05T21:49:17.837Z,6.69
2023-02-05T21:51:48.121Z,6.66
2023-02-05T21:54:16.178Z,6.60
2023-02-05T21:56:43.991Z,6.59
2023-02-05T21:59:13.038Z,6.55
2023-02-05T22:01:42.317Z,6.64
2023-02-05T22:04:16.016Z,6.62
2023-02-05T22:06:44.216Z,6.51
2023-02-05T22:09:14.181Z,6.47
2023-02-05T22:11:42.510Z,6.43
2023-02-05T22:14:14.346Z,6.51
2023-02-05T22:16:43.124Z,6.49
2023-02-05T22:19:11.156Z,6.51
2023-02-05T22:21:41.885Z,6.58
2023-02-05T22:24:15.782Z,6.70
2023-02-05T22:26:45.068Z,6.73
2023-02-05T22:29:16.016Z,6.78
2023-02-05T22:31:44.873Z,6.80
2023-02-05T22:34:13.128Z,6.77
2023-02-05T22:36:41.380Z,6.84
2023-02-05T22:39:09.433Z,6.76
2023-02-05T22:41:39.673Z,6.60
2023-02-05T22:44:09.863Z,6.48
2023-02-05T22:46:40.489Z,6.56
2023-02-05T22:49:08.573Z,6.52
2023-02-05T22:51:39.277Z,6.41
2023-02-05T22:54:08.533Z,6.35
2023-02-05T22:56:37.041Z,6.29
2023-02-05T22:59:05.040Z,6.23
2023-02-05T23:01:35.052Z,6.24
2023-02-05T23:04:04.805Z,6.38
2023-02-05T23:06:41.780Z,6.30
2023-02-05T23:09:16.626Z,6.27
2023-02-05T23:11:46.026Z,6.38
2023-02-05T23:14:15.941Z,6.44
2023-02-05T23:16:45.443Z,6.35
2023-02-05T23:19:16.498Z,6.43
2023-02-05T23:21:45.684Z,6.53
2023-02-05T23:24:13.379Z,6.49
2023-02-05T23:26:44.569Z,6.60
2023-02-05T23:29:17.791Z,6.65
2023-02-05T23:31:45.718Z,6.68
2023-02-05T23:34:13.835Z,6.56
2023-02-05T23:36:41.831Z,6.63
2023-02-05T23:39:10.203Z,6.72
2023-02-05T23:41:40.173Z,6.73
2023-02-05T23:44:12.736Z,6.53
2023-02-05T23:46:42.547Z,6.41
2023-02-05T23:49:11.061Z,6.62
2023-02-05T23:51:39.452Z,6.51
2023-02-05T23:54:09.329Z,6.44
2023-02-05T23:56:37.433Z,6.48
2023-02-05T23:59:06.698Z,6.41
